Time,TemperatureF,DewpointF,PressureIn,WindDirection,WindDirectionDegrees,WindSpeedMPH,WindSpeedGustMPH,Humidity,HourlyPrecipIn,Conditions,Clouds,dailyrainin,SoftwareType,DateUTC
2013-02-17 00:00:00,28.8,11.6,30.18,South,190,0.0,0.0,48,0.00,,---,0.00,VWS V14.01,2013-02-17 08:00:00,
2013-02-17 00:20:00,27.1,10.1,30.18,South,190,0.0,0.0,48,0.00,,---,0.00,VWS V14.01,2013-02-17 08:20:00,
2013-02-17 00:40:00,28.2,11.1,30.18,South,190,0.0,0.0,48,0.00,,---,0.00,VWS V14.01,2013-02-17 08:40:00,
2013-02-17 01:00:00,28.2,11.1,30.18,South,190,0.0,0.0,48,0.00,,---,0.00,VWS V14.01,2013-02-17 09:00:00,
2013-02-17 01:20:00,26.8,11.1,30.18,South,190,0.0,0.0,51,0.00,,---,0.00,VWS V14.01,2013-02-17 09:20:00,
2013-02-17 01:40:00,27.0,9.9,30.18,South,190,0.0,0.0,48,0.00,,---,0.00,VWS V14.01,2013-02-17 09:40:00,
2013-02-17 02:00:00,27.3,10.2,30.15,South,190,0.0,0.0,48,0.00,,---,0.00,VWS V14.01,2013-02-17 10:00:00,
2013-02-17 02:20:00,25.7,9.2,30.15,South,190,0.0,0.0,49,0.00,,---,0.00,VWS V14.01,2013-02-17 10:20:00,
2013-02-17 02:40:00,27.0,9.9,30.15,South,190,0.0,0.0,48,0.00,,---,0.00,VWS V14.01,2013-02-17 10:40:00,
2013-02-17 03:00:00,25.7,11.4,30.15,South,190,0.0,0.0,54,0.00,,---,0.00,VWS V14.01,2013-02-17 11:00:00,
2013-02-17 03:20:00,27.0,11.3,30.15,South,190,0.0,0.0,51,0.00,,---,0.00,VWS V14.01,2013-02-17 11:20:00,
2013-02-17 03:40:00,26.2,9.7,30.12,South,190,0.0,0.0,49,0.00,,---,0.00,VWS V14.01,2013-02-17 11:40:00,
2013-02-17 04:00:00,25.7,10.1,30.12,South,190,0.0,0.0,51,0.00,,---,0.00,VWS V14.01,2013-02-17 12:00:00,
2013-02-17 04:20:00,24.1,9.9,30.12,South,190,0.0,0.0,54,0.00,,---,0.00,VWS V14.01,2013-02-17 12:20:00,
2013-02-17 04:40:00,24.3,12.0,30.12,South,190,0.0,0.0,59,0.00,,---,0.00,VWS V14.01,2013-02-17 12:40:00,
2013-02-17 05:00:00,28.4,11.2,30.12,South,190,0.0,0.0,48,0.00,,---,0.00,VWS V14.01,2013-02-17 13:00:00,
2013-02-17 05:20:00,33.3,15.7,30.12,South,190,0.0,3.1,48,0.00,,---,0.00,VWS V14.01,2013-02-17 13:20:00,
2013-02-17 05:40:00,33.3,15.7,30.12,South,190,2.2,2.7,48,0.00,,---,0.00,VWS V14.01,2013-02-17 13:40:00,
2013-02-17 06:00:00,32.2,14.7,30.12,South,190,0.0,2.2,48,0.00,,---,0.00,VWS V14.01,2013-02-17 14:00:00,
2013-02-17 06:20:00,31.1,13.7,30.12,South,190,0.0,0.0,48,0.00,,---,0.00,VWS V14.01,2013-02-17 14:20:00,
2013-02-17 06:40:00,31.8,14.4,30.12,NNE,12,0.0,2.7,48,0.00,,---,0.00,VWS V14.01,2013-02-17 14:40:00,
2013-02-17 07:00:00,30.0,12.7,30.12,NNE,12,0.0,3.1,48,0.00,,---,0.00,VWS V14.01,2013-02-17 15:00:00,
2013-02-17 07:20:00,37.2,18.9,30.12,NNE,12,0.0,2.7,47,0.00,,---,0.00,VWS V14.01,2013-02-17 15:20:00,
2013-02-17 07:40:00,38.7,19.7,30.12,NNE,12,0.0,0.0,46,0.00,,---,0.00,VWS V14.01,2013-02-17 15:40:00,
2013-02-17 07:59:00,41.5,22.3,30.12,North,357,0.0,3.1,46,0.00,,---,0.00,VWS V14.01,2013-02-17 15:59:00,
2013-02-17 08:19:00,44.1,24.1,30.12,NNE,21,0.0,4.0,45,0.00,,---,0.00,VWS V14.01,2013-02-17 16:19:00,
2013-02-17 08:40:00,47.7,26.8,30.12,NNW,334,2.2,3.6,44,0.00,,---,0.00,VWS V14.01,2013-02-17 16:40:00,
2013-02-17 09:00:00,52.7,32.5,30.12,North,0,4.9,4.9,46,0.00,,---,0.00,VWS V14.01,2013-02-17 17:00:00,
2013-02-17 09:19:00,55.0,34.1,30.12,SSE,153,3.1,7.2,45,0.00,,---,0.00,VWS V14.01,2013-02-17 17:19:00,
2013-02-17 09:39:00,55.2,34.3,30.12,SSW,203,5.8,9.6,45,0.00,,---,0.00,VWS V14.01,2013-02-17 17:39:00,
2013-02-17 10:00:00,55.6,34.6,30.12,SSE,165,9.2,13.2,45,0.00,,---,0.00,VWS V14.01,2013-02-17 18:00:00,
2013-02-17 10:20:00,56.3,35.2,30.12,SW,214,4.9,10.5,45,0.00,,---,0.00,VWS V14.01,2013-02-17 18:20:00,
2013-02-17 10:39:00,57.6,35.8,30.12,NNE,25,3.1,9.6,44,0.00,,---,0.00,VWS V14.01,2013-02-17 18:39:00,
2013-02-17 11:00:00,59.5,37.6,30.12,SSW,192,3.1,10.5,44,0.00,,---,0.00,VWS V14.01,2013-02-17 19:00:00,
2013-02-17 11:20:00,62.1,39.9,30.12,WSW,246,3.1,11.0,44,0.00,,---,0.00,VWS V14.01,2013-02-17 19:20:00,
2013-02-17 11:40:00,62.2,41.2,30.12,South,179,8.1,9.6,46,0.00,,---,0.00,VWS V14.01,2013-02-17 19:40:00,
2013-02-17 11:59:00,62.1,41.1,30.12,South,169,8.3,11.0,46,0.00,,---,0.00,VWS V14.01,2013-02-17 19:59:00,
2013-02-17 12:20:00,62.8,41.7,30.12,SSW,209,6.3,12.8,46,0.00,,---,0.00,VWS V14.01,2013-02-17 20:20:00,
2013-02-17 12:39:00,64.4,42.6,30.09,WSW,253,5.8,12.3,45,0.00,,---,0.00,VWS V14.01,2013-02-17 20:39:00,
2013-02-17 13:00:00,62.8,41.7,30.09,SSW,206,8.7,12.8,46,0.00,,---,0.00,VWS V14.01,2013-02-17 21:00:00,
2013-02-17 13:20:00,64.2,43.0,30.09,SW,227,5.8,13.2,46,0.00,,---,0.00,VWS V14.01,2013-02-17 21:20:00,
2013-02-17 13:40:00,64.0,42.9,30.09,SSW,200,3.6,12.8,46,0.00,,---,0.00,VWS V14.01,2013-02-17 21:40:00,
2013-02-17 13:59:00,65.8,43.9,30.09,SSW,200,5.4,12.3,45,0.00,,---,0.00,VWS V14.01,2013-02-17 21:59:00,
2013-02-17 14:19:00,65.5,43.6,30.09,SSE,149,8.1,12.3,45,0.00,,---,0.00,VWS V14.01,2013-02-17 22:19:00,
2013-02-17 14:40:00,64.9,43.1,30.09,WSW,237,3.1,12.8,45,0.00,,---,0.00,VWS V14.01,2013-02-17 22:40:00,
2013-02-17 15:00:00,65.5,43.6,30.09,SSW,198,3.6,15.4,45,0.00,,---,0.00,VWS V14.01,2013-02-17 23:00:00,
2013-02-17 15:19:00,64.0,42.9,30.09,SW,225,6.3,15.0,46,0.00,,---,0.00,VWS V14.01,2013-02-17 23:19:00,
2013-02-17 15:40:00,64.4,42.6,30.09,North,0,2.7,8.3,45,0.00,,---,0.00,VWS V14.01,2013-02-17 23:40:00,
2013-02-17 15:59:00,64.4,42.6,30.12,ESE,121,2.7,11.0,45,0.00,,---,0.00,VWS V14.01,2013-02-17 23:59:00,
2013-02-17 16:19:00,60.6,40.3,30.09,South,182,3.6,8.3,47,0.00,,---,0.00,VWS V14.01,2013-02-18 00:19:00,
2013-02-17 16:39:00,55.2,34.3,30.12,North,0,2.7,5.4,45,0.00,,---,0.00,VWS V14.01,2013-02-18 00:39:00,
2013-02-17 17:00:00,48.6,28.7,30.12,SSW,200,2.7,6.3,46,0.00,,---,0.00,VWS V14.01,2013-02-18 01:00:00,
2013-02-17 17:19:00,44.8,27.3,30.12,SW,214,2.7,4.0,50,0.00,,---,0.00,VWS V14.01,2013-02-18 01:19:00,
2013-02-17 17:39:00,43.7,29.9,30.12,SW,225,2.7,5.4,58,0.00,,---,0.00,VWS V14.01,2013-02-18 01:39:00,
2013-02-17 17:59:00,39.9,27.6,30.12,North,0,0.0,4.9,61,0.00,,---,0.00,VWS V14.01,2013-02-18 01:59:00,
2013-02-17 18:19:00,39.2,26.5,30.12,NNW,341,2.2,4.0,60,0.00,,---,0.00,VWS V14.01,2013-02-18 02:19:00,
2013-02-17 18:40:00,39.7,28.2,30.12,NNW,327,4.9,5.8,63,0.00,,---,0.00,VWS V14.01,2013-02-18 02:40:00,
2013-02-17 18:59:00,39.0,27.9,30.12,North,353,3.1,5.4,64,0.00,,---,0.00,VWS V14.01,2013-02-18 02:59:00,
2013-02-17 19:19:00,36.3,27.1,30.12,NNW,340,0.0,3.6,69,0.00,,---,0.00,VWS V14.01,2013-02-18 03:19:00,
2013-02-17 19:40:00,35.6,26.8,30.12,North,0,0.0,3.6,70,0.00,,---,0.00,VWS V14.01,2013-02-18 03:40:00,
2013-02-17 19:59:00,32.9,26.8,30.12,NNW,337,0.0,3.1,78,0.00,,---,0.00,VWS V14.01,2013-02-18 03:59:00,
2013-02-17 20:19:00,32.2,25.8,30.12,North,357,0.0,3.1,77,0.00,,---,0.00,VWS V14.01,2013-02-18 04:19:00,
2013-02-17 20:39:00,29.7,23.4,30.15,North,11,0.0,3.1,77,0.00,,---,0.00,VWS V14.01,2013-02-18 04:39:00,
2013-02-17 20:59:00,28.2,24.3,30.15,North,11,0.0,2.7,85,0.00,,---,0.00,VWS V14.01,2013-02-18 04:59:00,
2013-02-17 21:19:00,28.2,24.6,30.15,North,11,0.0,0.0,86,0.00,,---,0.00,VWS V14.01,2013-02-18 05:19:00,
2013-02-17 21:39:00,27.9,24.5,30.15,North,11,0.0,3.1,87,0.00,,---,0.00,VWS V14.01,2013-02-18 05:39:00,
2013-02-17 21:59:00,28.4,26.9,30.15,NNW,345,0.0,4.0,94,0.00,,---,0.00,VWS V14.01,2013-02-18 05:59:00,
2013-02-17 22:19:00,26.8,22.0,30.15,NNE,20,0.0,4.5,82,0.00,,---,0.00,VWS V14.01,2013-02-18 06:19:00,
2013-02-17 22:39:00,26.8,24.2,30.15,NNE,20,0.0,0.0,90,0.00,,---,0.00,VWS V14.01,2013-02-18 06:39:00,
2013-02-17 22:59:00,26.1,24.8,30.15,NNE,20,0.0,0.0,95,0.00,,---,0.00,VWS V14.01,2013-02-18 06:59:00,
2013-02-17 23:19:00,25.0,23.5,30.15,NNE,20,0.0,0.0,94,0.00,,---,0.00,VWS V14.01,2013-02-18 07:19:00,
2013-02-17 23:39:00,24.6,23.4,30.15,NNE,20,0.0,0.0,95,0.00,,---,0.00,VWS V14.01,2013-02-18 07:39:00,
2013-02-17 23:59:00,24.8,23.8,30.15,NNE,20,0.0,0.0,96,0.00,,---,0.00,VWS V14.01,2013-02-18 07:59:00,